createdAt,value
2022-11-05T00:00:41.592Z,10.27
2022-11-05T00:01:41.797Z,10.27
2022-11-05T00:02:41.550Z,10.27
2022-11-05T00:03:44.996Z,10.25
2022-11-05T00:04:41.546Z,10.24
2022-11-05T00:05:41.569Z,10.27
2022-11-05T00:06:41.585Z,10.24
2022-11-05T00:07:41.581Z,10.25
2022-11-05T00:08:41.569Z,10.23
2022-11-05T00:09:41.564Z,10.23
2022-11-05T00:10:41.581Z,10.25
2022-11-05T00:11:41.588Z,10.21
2022-11-05T00:12:41.634Z,10.25
2022-11-05T00:13:41.574Z,10.15
2022-11-05T00:14:44.655Z,10.18
2022-11-05T00:15:41.588Z,10.24
2022-11-05T00:16:41.588Z,10.18
2022-11-05T00:17:41.589Z,10.17
2022-11-05T00:18:41.728Z,10.25
2022-11-05T00:19:41.585Z,10.24
2022-11-05T00:20:41.577Z,10.21
2022-11-05T00:21:41.615Z,10.15
2022-11-05T00:22:41.618Z,10.17
2022-11-05T00:23:41.610Z,10.21
2022-11-05T00:24:41.603Z,10.2
2022-11-05T00:25:41.627Z,10.23
2022-11-05T00:26:41.613Z,10.12
2022-11-05T00:27:41.651Z,10.28
2022-11-05T00:28:41.605Z,10.1
2022-11-05T00:29:41.598Z,10.18
2022-11-05T00:30:41.604Z,10.15
2022-11-05T00:31:41.612Z,10.18
2022-11-05T00:32:41.677Z,10.17
2022-11-05T00:33:41.624Z,10.2
2022-11-05T00:34:41.619Z,10.18
2022-11-05T00:35:41.598Z,10.13
2022-11-05T00:36:41.619Z,10.23
2022-11-05T00:37:45.707Z,10.09
2022-11-05T00:38:41.627Z,10.1
2022-11-05T00:39:41.639Z,10.13
2022-11-05T00:40:41.608Z,10.17
2022-11-05T00:41:41.613Z,10.17
2022-11-05T00:42:41.620Z,10.13
2022-11-05T00:43:41.660Z,10.12
2022-11-05T00:44:41.622Z,10.2
2022-11-05T00:45:41.617Z,10.07
2022-11-05T00:46:41.622Z,10.23
2022-11-05T00:47:41.618Z,10.17
2022-11-05T00:48:41.659Z,10.2
2022-11-05T00:49:41.634Z,10.2
2022-11-05T00:50:41.639Z,10.23
2022-11-05T00:51:41.628Z,10.15
2022-11-05T00:52:41.633Z,10.23
2022-11-05T00:53:41.660Z,10.28
2022-11-05T00:54:41.673Z,10.1
2022-11-05T00:55:41.658Z,10.24
2022-11-05T00:56:41.635Z,10.17
2022-11-05T00:57:44.459Z,10.2
2022-11-05T00:58:41.663Z,10.2
2022-11-05T00:59:41.665Z,10.18
2022-11-05T01:00:41.637Z,10.12
2022-11-05T01:01:42.123Z,10.15
2022-11-05T01:02:42.150Z,10.2
2022-11-05T01:03:41.671Z,10.17
2022-11-05T01:04:41.644Z,10.17
2022-11-05T01:05:41.644Z,10.17
2022-11-05T01:06:41.656Z,10.12
2022-11-05T01:07:41.648Z,10.2
2022-11-05T01:08:44.485Z,10.12
2022-11-05T01:09:41.661Z,10.21
2022-11-05T01:10:41.680Z,10.12
2022-11-05T01:11:42.012Z,10.13
2022-11-05T01:12:41.657Z,10.25
2022-11-05T01:13:41.686Z,10.1
2022-11-05T01:14:41.669Z,10.07
2022-11-05T01:15:41.697Z,10.09
2022-11-05T01:16:41.665Z,10
2022-11-05T01:17:41.663Z,10.07
2022-11-05T01:18:41.705Z,10.07
2022-11-05T01:19:44.773Z,10.1
2022-11-05T01:20:41.672Z,10.09
2022-11-05T01:21:41.677Z,10.06
2022-11-05T01:22:41.684Z,9.97
2022-11-05T01:23:41.702Z,10.02
2022-11-05T01:24:41.670Z,10.07
2022-11-05T01:25:41.691Z,10.07
2022-11-05T01:29:42.768Z,10.07
2022-11-05T01:30:44.812Z,10.1
2022-11-05T01:31:41.704Z,10.17
2022-11-05T01:32:41.685Z,10.02
2022-11-05T01:33:41.689Z,10.03
2022-11-05T01:34:41.716Z,10.1
2022-11-05T01:35:41.723Z,10.09
2022-11-05T01:36:41.699Z,10.17
2022-11-05T01:37:41.687Z,10.15
2022-11-05T01:38:41.697Z,10.15
2022-11-05T01:39:41.724Z,10.24
2022-11-05T01:40:41.708Z,10.09
2022-11-05T01:41:44.707Z,10.21
2022-11-05T01:42:41.716Z,10.07
2022-11-05T01:43:41.701Z,10.17
2022-11-05T01:44:41.722Z,10.23
2022-11-05T01:45:41.862Z,10.18
2022-11-05T01:46:44.512Z,10.12
2022-11-05T01:47:41.723Z,10.15
2022-11-05T01:48:41.718Z,10.2
2022-11-05T01:49:42.197Z,10.12
2022-11-05T01:50:41.725Z,10.17
2022-11-05T01:51:41.965Z,10.09
2022-11-05T01:52:44.817Z,10.13
2022-11-05T01:53:41.725Z,10.05
2022-11-05T01:54:41.767Z,10.05
2022-11-05T01:55:41.737Z,10.02
2022-11-05T01:56:41.741Z,10.02
2022-11-05T01:57:44.502Z,9.94
2022-11-05T01:58:41.726Z,9.99
2022-11-05T01:59:41.803Z,10.02
2022-11-05T02:00:41.743Z,9.94
2022-11-05T02:01:42.329Z,10.06
2022-11-05T02:02:42.307Z,10
2022-11-05T02:03:44.807Z,10.07
2022-11-05T02:04:41.782Z,10.06
2022-11-05T02:05:41.747Z,9.99
2022-11-05T02:06:41.738Z,10.05
2022-11-05T02:07:41.797Z,10.03
2022-11-05T02:08:44.808Z,10.12
2022-11-05T02:09:41.770Z,10.06
2022-11-05T02:10:41.746Z,10.03
2022-11-05T02:11:41.765Z,10
2022-11-05T02:12:41.751Z,10
2022-11-05T02:13:41.753Z,10.06
2022-11-05T02:14:44.743Z,10.05
2022-11-05T02:15:41.761Z,10.05
2022-11-05T02:16:41.755Z,10.05
2022-11-05T02:17:41.816Z,10.07
2022-11-05T02:18:41.796Z,10.2
2022-11-05T02:19:44.747Z,10.09
2022-11-05T02:20:41.766Z,9.99
2022-11-05T02:21:41.777Z,10.06
2022-11-05T02:22:41.779Z,10.17
2022-11-05T02:23:41.788Z,10.13
2022-11-05T02:24:41.772Z,10.09
2022-11-05T02:25:41.775Z,10.1
2022-11-05T02:26:41.781Z,10.09
2022-11-05T02:27:41.773Z,10.18
2022-11-05T02:28:41.784Z,10.21
2022-11-05T02:29:41.783Z,10.07
2022-11-05T02:30:44.804Z,10.18
2022-11-05T02:31:41.795Z,10.09
2022-11-05T02:32:41.792Z,10.17
2022-11-05T02:33:41.926Z,10.18
2022-11-05T02:34:41.840Z,10.09
2022-11-05T02:35:41.786Z,10.23
2022-11-05T02:36:41.794Z,10.2
2022-11-05T02:37:41.795Z,10.25
2022-11-05T02:38:41.793Z,10.17
2022-11-05T02:39:41.792Z,10.2
2022-11-05T02:40:41.808Z,10.1
2022-11-05T02:41:44.652Z,10.07
2022-11-05T02:42:41.817Z,10.07
2022-11-05T02:43:41.809Z,10.15
2022-11-05T02:44:41.796Z,10.13
2022-11-05T02:45:41.866Z,10.15
2022-11-05T02:46:41.809Z,10.23
2022-11-05T02:47:41.800Z,10.12
2022-11-05T02:48:41.810Z,10.09
2022-11-05T02:49:41.953Z,10.17
2022-11-05T02:50:41.861Z,10.18
2022-11-05T02:51:41.848Z,10.18
2022-11-05T02:52:41.809Z,10.25
2022-11-05T02:53:41.819Z,10.18
2022-11-05T02:54:41.810Z,10.25
2022-11-05T02:55:41.815Z,10.33
2022-11-05T02:56:41.985Z,10.33
2022-11-05T02:57:41.830Z,10.24
2022-11-05T02:58:41.838Z,10.28
2022-11-05T02:59:41.849Z,10.34
2022-11-05T03:00:41.822Z,10.23
2022-11-05T03:01:42.326Z,10.27
2022-11-05T03:02:42.562Z,10.23
2022-11-05T03:03:41.910Z,10.27
2022-11-05T03:04:41.832Z,10.21
2022-11-05T03:05:41.882Z,10.25
2022-11-05T03:06:41.899Z,10.28
2022-11-05T03:07:41.844Z,10.18
2022-11-05T03:08:41.835Z,10.23
2022-11-05T03:09:41.841Z,10.23
2022-11-05T03:10:41.845Z,10.24
2022-11-05T03:11:41.849Z,10.27
2022-11-05T03:12:41.845Z,10.27
2022-11-05T03:13:41.870Z,10.31
2022-11-05T03:14:41.851Z,10.25
2022-11-05T03:15:41.843Z,10.33
2022-11-05T03:16:41.850Z,10.25
2022-11-05T03:17:41.873Z,10.28
2022-11-05T03:18:41.850Z,10.33
2022-11-05T03:19:41.855Z,10.27
2022-11-05T03:20:41.876Z,10.39
2022-11-05T03:21:41.915Z,10.3
2022-11-05T03:22:41.874Z,10.43
2022-11-05T03:23:41.863Z,10.28
2022-11-05T03:24:44.714Z,10.25
2022-11-05T03:25:41.858Z,10.25
2022-11-05T03:26:41.874Z,10.2
2022-11-05T03:27:41.877Z,10.24
2022-11-05T03:28:41.874Z,10.18
2022-11-05T03:29:42.286Z,10.25
2022-11-05T03:30:41.954Z,10.23
2022-11-05T03:31:41.886Z,10.27
2022-11-05T03:32:41.873Z,10.31
2022-11-05T03:33:41.892Z,10.24
2022-11-05T03:34:41.891Z,10.27
2022-11-05T03:35:44.730Z,10.24
2022-11-05T03:36:41.911Z,10.3
2022-11-05T03:37:41.944Z,10.28
2022-11-05T03:38:41.906Z,10.38
2022-11-05T03:39:41.894Z,10.34
2022-11-05T03:40:41.922Z,10.18
2022-11-05T03:41:41.929Z,10.27
2022-11-05T03:42:41.895Z,10.21
2022-11-05T03:43:41.894Z,10.2
2022-11-05T03:44:41.908Z,10.27
2022-11-05T03:45:41.914Z,10.31
2022-11-05T03:46:44.969Z,10.33
2022-11-05T03:47:41.906Z,10.27
2022-11-05T03:48:42.204Z,10.24
2022-11-05T03:49:41.915Z,10.21
2022-11-05T03:50:46.031Z,10.25
2022-11-05T03:51:41.918Z,10.3
2022-11-05T03:52:41.908Z,10.23
2022-11-05T03:53:41.956Z,10.23
2022-11-05T03:54:42.197Z,10.18
2022-11-05T03:55:41.942Z,10.3
2022-11-05T03:56:41.923Z,10.25
2022-11-05T03:57:44.955Z,10.24
2022-11-05T03:58:41.933Z,10.13
2022-11-05T03:59:41.925Z,10.15
2022-11-05T04:00:41.932Z,10.23
2022-11-05T04:01:42.363Z,10.15
2022-11-05T04:02:42.466Z,10.25
2022-11-05T04:03:41.930Z,10.21
2022-11-05T04:04:41.918Z,10.24
2022-11-05T04:05:41.946Z,10.25
2022-11-05T04:06:41.953Z,10.28
2022-11-05T04:07:41.927Z,10.27
2022-11-05T04:08:45.001Z,10.23
2022-11-05T04:09:41.990Z,10.27
2022-11-05T04:10:41.981Z,10.21
2022-11-05T04:11:41.965Z,10.23
2022-11-05T04:12:41.947Z,10.36
2022-11-05T04:13:44.774Z,10.28
2022-11-05T04:14:41.946Z,10.42
2022-11-05T04:15:42.030Z,10.24
2022-11-05T04:16:41.963Z,10.27
2022-11-05T04:17:41.956Z,10.33
2022-11-05T04:18:41.949Z,10.3
2022-11-05T04:19:44.830Z,10.3
2022-11-05T04:20:41.970Z,10.25
2022-11-05T04:21:41.966Z,10.3
2022-11-05T04:22:42.006Z,10.27
2022-11-05T04:23:42.009Z,10.23
2022-11-05T04:24:45.099Z,10.18
2022-11-05T04:25:41.978Z,10.21
2022-11-05T04:26:42.016Z,10.23
2022-11-05T04:27:41.959Z,10.15
2022-11-05T04:28:41.962Z,10.21
2022-11-05T04:29:41.972Z,10.28
2022-11-05T04:30:44.756Z,10.28
2022-11-05T04:31:41.989Z,10.21
2022-11-05T04:32:41.975Z,10.13
2022-11-05T04:33:41.974Z,10.15
2022-11-05T04:34:41.970Z,10.12
2022-11-05T04:35:43.754Z,10.17
2022-11-05T04:36:41.982Z,10.02
2022-11-05T04:37:41.986Z,10.1
2022-11-05T04:38:41.978Z,10.02
2022-11-05T04:39:41.978Z,9.94
2022-11-05T04:40:42.078Z,9.94
2022-11-05T04:41:44.920Z,9.94
2022-11-05T04:42:41.978Z,9.95
2022-11-05T04:43:41.988Z,9.9
2022-11-05T04:44:41.997Z,9.88
2022-11-05T04:45:42.009Z,9.91
2022-11-05T04:46:44.768Z,9.91
2022-11-05T04:47:41.992Z,9.97
2022-11-05T04:48:42.013Z,9.97
2022-11-05T04:49:42.007Z,9.92
2022-11-05T04:50:42.023Z,9.95
2022-11-05T04:51:42.015Z,9.94
2022-11-05T04:52:42.029Z,9.97
2022-11-05T04:53:42.010Z,10.03
2022-11-05T04:54:42.006Z,9.95
2022-11-05T04:55:42.041Z,9.87
2022-11-05T04:56:42.059Z,9.97
2022-11-05T04:57:45.162Z,9.91
2022-11-05T04:58:42.021Z,9.91
2022-11-05T04:59:42.025Z,9.88
2022-11-05T05:00:42.367Z,10.02
2022-11-05T05:01:42.688Z,10.02
2022-11-05T05:02:42.023Z,10.02
2022-11-05T05:03:42.013Z,10.03
2022-11-05T05:04:42.033Z,9.99
2022-11-05T05:05:42.049Z,9.91
2022-11-05T05:06:42.045Z,10.05
2022-11-05T05:07:42.017Z,10.02
2022-11-05T05:08:45.074Z,9.88
2022-11-05T05:09:42.035Z,9.91
2022-11-05T05:10:42.072Z,9.84
2022-11-05T05:11:42.056Z,9.8
2022-11-05T05:12:42.105Z,9.82
2022-11-05T05:13:42.175Z,9.92
2022-11-05T05:14:42.027Z,9.85
2022-11-05T05:15:42.060Z,9.99
2022-11-05T05:16:42.095Z,10.05
2022-11-05T05:17:42.038Z,10.09
2022-11-05T05:18:48.731Z,10.09
2022-11-05T05:19:42.045Z,9.92
2022-11-05T05:20:42.066Z,9.99
2022-11-05T05:21:42.041Z,10
2022-11-05T05:22:42.043Z,9.97
2022-11-05T05:23:42.208Z,10.02
2022-11-05T05:24:42.067Z,10.02
2022-11-05T05:25:42.100Z,9.99
2022-11-05T05:26:42.057Z,9.99
2022-11-05T05:27:42.054Z,9.99
2022-11-05T05:28:42.128Z,10
2022-11-05T05:29:42.083Z,9.97
2022-11-05T05:30:42.087Z,9.97
2022-11-05T05:31:42.072Z,9.97
2022-11-05T05:32:42.054Z,9.99
2022-11-05T05:33:42.067Z,9.95
2022-11-05T05:34:44.970Z,10.07
2022-11-05T05:35:42.088Z,9.99
2022-11-05T05:36:42.080Z,9.92
2022-11-05T05:37:42.069Z,9.97
2022-11-05T05:38:42.079Z,10.02
2022-11-05T05:39:42.165Z,9.92
2022-11-05T05:40:42.131Z,9.91
2022-11-05T05:41:42.079Z,9.94
2022-11-05T05:42:47.386Z,10.02
2022-11-05T05:43:42.175Z,9.95
2022-11-05T05:44:42.122Z,9.91
2022-11-05T05:45:42.129Z,10.03
2022-11-05T05:46:42.140Z,10
2022-11-05T05:47:42.132Z,10.05
2022-11-05T05:48:42.144Z,10.09
2022-11-05T05:49:42.098Z,10.05
2022-11-05T05:50:42.138Z,10.06
2022-11-05T05:51:45.128Z,10.02
2022-11-05T05:52:42.094Z,10.05
2022-11-05T05:53:42.103Z,10.02
2022-11-05T05:54:47.306Z,10.02
2022-11-05T05:55:42.178Z,9.99
2022-11-05T05:56:42.106Z,10.02
2022-11-05T05:57:42.102Z,10.02
2022-11-05T05:58:42.117Z,9.97
2022-11-05T05:59:42.123Z,10
2022-11-05T06:00:42.211Z,10.06
2022-11-05T06:01:42.663Z,9.99
2022-11-05T06:02:45.688Z,10.13
2022-11-05T06:03:42.113Z,10.09
2022-11-05T06:04:42.129Z,10.07
2022-11-05T06:05:42.140Z,10.1
2022-11-05T06:06:42.123Z,10.05
2022-11-05T06:07:42.331Z,10.07
2022-11-05T06:08:42.128Z,10.05
2022-11-05T06:09:41.964Z,10.1
2022-11-05T06:10:42.449Z,10.15
2022-11-05T06:11:42.123Z,10.17
2022-11-05T06:12:42.130Z,10.15
2022-11-05T06:13:45.078Z,10.07
2022-11-05T06:14:42.125Z,10.18
2022-11-05T06:15:42.151Z,10.25
2022-11-05T06:16:42.323Z,10.18
2022-11-05T06:17:42.163Z,10.18
2022-11-05T06:18:42.151Z,10.05
2022-11-05T06:19:42.133Z,10.21
2022-11-05T06:20:42.160Z,10.17
2022-11-05T06:21:42.148Z,10.15
2022-11-05T06:22:42.149Z,10.2
2022-11-05T06:23:42.137Z,10.15
2022-11-05T06:24:45.217Z,10.2
2022-11-05T06:25:45.777Z,10.18
2022-11-05T06:26:41.980Z,10.23
2022-11-05T06:27:41.984Z,10.24
2022-11-05T06:28:42.203Z,10.12
2022-11-05T06:29:42.154Z,10.3
2022-11-05T06:30:42.172Z,10.15
2022-11-05T06:31:42.185Z,10.23
2022-11-05T06:32:42.327Z,10.25
2022-11-05T06:33:42.389Z,10.28
2022-11-05T06:34:42.153Z,10.3
2022-11-05T06:35:43.246Z,10.27
2022-11-05T06:36:42.165Z,10.3
2022-11-05T06:37:42.165Z,10.23
2022-11-05T06:38:42.163Z,10.3
2022-11-05T06:39:42.168Z,10.23
2022-11-05T06:40:45.177Z,10.3
2022-11-05T06:42:23.828Z,10.33
2022-11-05T06:42:42.187Z,10.27
2022-11-05T06:43:42.166Z,10.33
2022-11-05T06:44:42.177Z,10.23
2022-11-05T06:45:42.200Z,10.34
2022-11-05T06:46:48.564Z,10.25
2022-11-05T06:47:42.274Z,10.36
2022-11-05T06:48:42.333Z,10.27
2022-11-05T06:49:42.225Z,10.25
2022-11-05T06:50:42.176Z,10.25
2022-11-05T06:51:43.673Z,10.23
2022-11-05T06:52:45.757Z,10.2
2022-11-05T06:53:42.020Z,10.12
2022-11-05T06:54:42.020Z,10.18
2022-11-05T06:55:42.208Z,10.21
2022-11-05T06:56:42.238Z,10.25
2022-11-05T06:57:45.245Z,10.38
2022-11-05T06:58:42.204Z,10.39
2022-11-05T06:59:42.200Z,10.31
2022-11-05T07:00:42.429Z,10.31
2022-11-05T07:01:42.791Z,10.36
2022-11-05T07:02:44.764Z,10.45
2022-11-05T07:03:42.213Z,10.34
2022-11-05T07:04:42.247Z,10.25
2022-11-05T07:05:42.315Z,10.25
2022-11-05T07:06:42.263Z,10.3
2022-11-05T07:07:42.211Z,10.33
2022-11-05T07:08:45.342Z,10.25
2022-11-05T07:09:42.214Z,10.43
2022-11-05T07:10:42.247Z,10.42
2022-11-05T07:11:42.240Z,10.53
2022-11-05T07:12:42.214Z,10.49
2022-11-05T07:13:45.335Z,10.49
2022-11-05T07:14:42.223Z,10.48
2022-11-05T07:15:42.227Z,10.61
2022-11-05T07:16:42.262Z,10.67
2022-11-05T07:17:42.231Z,10.64
2022-11-05T07:18:42.239Z,10.65
2022-11-05T07:19:42.225Z,10.72
2022-11-05T07:20:42.383Z,10.68
2022-11-05T07:21:42.294Z,10.72
2022-11-05T07:22:42.223Z,10.71
2022-11-05T07:23:42.084Z,10.64
2022-11-05T07:24:45.258Z,10.75
2022-11-05T07:25:42.238Z,10.69
2022-11-05T07:26:42.280Z,10.76
2022-11-05T07:27:42.249Z,10.72
2022-11-05T07:28:42.274Z,10.77
2022-11-05T07:29:42.244Z,10.79
2022-11-05T07:30:42.260Z,10.8
2022-11-05T07:31:42.270Z,10.8
2022-11-05T07:32:42.242Z,10.76
2022-11-05T07:33:42.290Z,10.72
2022-11-05T07:34:42.260Z,10.79
2022-11-05T07:35:45.157Z,10.75
2022-11-05T07:36:42.442Z,10.84
2022-11-05T07:37:42.281Z,10.84
2022-11-05T07:38:42.090Z,10.83
2022-11-05T07:39:42.457Z,10.8
2022-11-05T07:40:42.262Z,10.82
2022-11-05T07:41:42.357Z,10.87
2022-11-05T07:42:42.266Z,10.89
2022-11-05T07:43:42.255Z,10.9
2022-11-05T07:44:42.289Z,10.97
2022-11-05T07:45:42.301Z,10.89
2022-11-05T07:46:42.300Z,10.86
2022-11-05T07:47:42.124Z,10.84
2022-11-05T07:48:42.115Z,10.95
2022-11-05T07:49:42.317Z,10.89
2022-11-05T07:50:42.279Z,10.94
2022-11-05T07:51:42.359Z,11
2022-11-05T07:52:42.316Z,11.05
2022-11-05T07:53:48.541Z,11.04
2022-11-05T07:54:42.302Z,11.13
2022-11-05T07:55:42.286Z,11.05
2022-11-05T07:56:42.316Z,10.98
2022-11-05T07:57:42.140Z,11.01
2022-11-05T07:58:42.303Z,11.04
2022-11-05T07:59:42.182Z,10.89
2022-11-05T08:00:42.930Z,11.04
2022-11-05T08:01:43.143Z,11.05
2022-11-05T08:02:43.242Z,11.12
2022-11-05T08:03:42.619Z,11.15
2022-11-05T08:04:42.302Z,11.3
2022-11-05T08:05:42.387Z,11.18
2022-11-05T08:06:42.364Z,11.37
2022-11-05T08:07:42.324Z,11.27
2022-11-05T08:08:42.344Z,11.4
2022-11-05T08:09:42.388Z,11.45
2022-11-05T08:10:42.316Z,11.55
2022-11-05T08:11:42.350Z,11.49
2022-11-05T08:12:42.350Z,11.53
2022-11-05T08:13:42.028Z,11.67
2022-11-05T08:14:42.320Z,11.6
2022-11-05T08:15:42.325Z,11.65
2022-11-05T08:16:42.152Z,11.58
2022-11-05T08:17:42.397Z,11.6
2022-11-05T08:18:43.413Z,11.7
2022-11-05T08:19:42.328Z,11.77
2022-11-05T08:20:42.323Z,11.85
2022-11-05T08:21:42.332Z,12.02
2022-11-05T08:22:42.362Z,12.08
2022-11-05T08:23:42.226Z,12.05
2022-11-05T08:24:42.210Z,12.07
2022-11-05T08:25:42.450Z,12.11
2022-11-05T08:26:42.337Z,12.15
2022-11-05T08:27:42.326Z,12.05
2022-11-05T08:28:42.356Z,12.15
2022-11-05T08:29:45.178Z,11.99
2022-11-05T08:30:42.358Z,12.11
2022-11-05T08:31:42.350Z,12.1
2022-11-05T08:32:42.365Z,12.08
2022-11-05T08:33:42.350Z,12.18
2022-11-05T08:34:42.373Z,12.08
2022-11-05T08:35:42.364Z,12.15
2022-11-05T08:36:42.378Z,12.05
2022-11-05T08:37:42.346Z,11.99
2022-11-05T08:38:42.191Z,11.96
2022-11-05T08:39:42.384Z,12.02
2022-11-05T08:40:45.515Z,11.88
2022-11-05T08:41:42.360Z,11.91
2022-11-05T08:42:42.362Z,11.89
2022-11-05T08:43:42.362Z,11.81
2022-11-05T08:44:42.374Z,11.85
2022-11-05T08:45:43.105Z,11.88
2022-11-05T08:46:49.391Z,11.85
2022-11-05T08:47:42.370Z,11.93
2022-11-05T08:48:42.379Z,11.93
2022-11-05T08:49:42.429Z,11.89
2022-11-05T08:50:42.379Z,11.78
2022-11-05T08:51:45.145Z,11.86
2022-11-05T08:52:42.379Z,11.85
2022-11-05T08:53:42.410Z,11.73
2022-11-05T08:54:42.393Z,11.83
2022-11-05T08:55:42.410Z,11.81
2022-11-05T08:56:42.496Z,11.7
2022-11-05T08:57:42.482Z,11.85
2022-11-05T08:58:42.396Z,11.86
2022-11-05T08:59:42.394Z,11.85
2022-11-05T09:00:42.773Z,11.8
2022-11-05T09:01:42.798Z,11.68
2022-11-05T09:02:45.512Z,11.77
2022-11-05T09:03:42.405Z,11.71
2022-11-05T09:04:42.423Z,11.74
2022-11-05T09:05:42.457Z,11.7
2022-11-05T09:06:42.454Z,11.6
2022-11-05T09:07:42.904Z,11.68
2022-11-05T09:08:42.409Z,11.74
2022-11-05T09:09:42.419Z,11.74
2022-11-05T09:10:42.423Z,11.86
2022-11-05T09:12:15.670Z,11.77
2022-11-05T09:12:42.468Z,11.8
2022-11-05T09:13:45.198Z,11.73
2022-11-05T09:14:42.429Z,11.76
2022-11-05T09:15:42.412Z,11.78
2022-11-05T09:16:42.419Z,11.81
2022-11-05T09:17:42.455Z,11.96
2022-11-05T09:18:45.245Z,11.86
2022-11-05T09:19:44.600Z,11.99
2022-11-05T09:20:42.414Z,11.95
2022-11-05T09:21:42.430Z,11.91
2022-11-05T09:22:47.646Z,11.97
2022-11-05T09:23:42.428Z,12.02
2022-11-05T09:24:45.190Z,12.02
2022-11-05T09:25:42.428Z,12.17
2022-11-05T09:26:42.442Z,12.18
2022-11-05T09:27:42.482Z,12.28
2022-11-05T09:28:42.461Z,12.3
2022-11-05T09:29:45.203Z,12.3
2022-11-05T09:30:42.289Z,12.33
2022-11-05T09:31:42.448Z,12.28
2022-11-05T09:32:42.438Z,12.39
2022-11-05T09:33:42.472Z,12.44
2022-11-05T09:34:42.457Z,12.45
2022-11-05T09:35:45.279Z,12.39
2022-11-05T09:36:42.443Z,12.4
2022-11-05T09:37:42.680Z,12.51
2022-11-05T09:38:42.462Z,12.53
2022-11-05T09:39:42.445Z,12.62
2022-11-05T09:40:45.536Z,12.58
2022-11-05T09:41:42.460Z,12.72
2022-11-05T09:42:42.457Z,12.75
2022-11-05T09:43:42.520Z,12.62
2022-11-05T09:44:43.074Z,12.63
2022-11-05T09:45:42.480Z,12.73
2022-11-05T09:46:42.460Z,12.83
2022-11-05T09:47:42.469Z,12.51
2022-11-05T09:48:42.494Z,12.65
2022-11-05T09:49:42.340Z,12.7
2022-11-05T09:50:42.474Z,12.62
2022-11-05T09:51:45.230Z,12.62
2022-11-05T09:52:42.484Z,12.45
2022-11-05T09:53:42.480Z,12.66
2022-11-05T09:54:42.477Z,12.66
2022-11-05T09:55:42.481Z,12.8
2022-11-05T09:56:42.330Z,12.83
2022-11-05T09:57:42.608Z,12.84
2022-11-05T09:58:42.482Z,12.91
2022-11-05T09:59:42.631Z,12.9
2022-11-05T10:00:42.649Z,12.75
2022-11-05T10:01:43.294Z,12.9
2022-11-05T10:02:46.727Z,13.09
2022-11-05T10:03:42.493Z,12.99
2022-11-05T10:04:42.499Z,13.09
2022-11-05T10:05:42.612Z,13.02
2022-11-05T10:06:42.505Z,13.01
2022-11-05T10:07:42.495Z,13.02
2022-11-05T10:08:42.532Z,13.06
2022-11-05T10:09:42.536Z,13.05
2022-11-05T10:10:45.799Z,12.95
2022-11-05T10:11:42.514Z,13.01
2022-11-05T10:12:42.530Z,13.09
2022-11-05T10:13:42.520Z,13.12
2022-11-05T10:14:42.509Z,13.16
2022-11-05T10:15:42.656Z,13.17
2022-11-05T10:16:42.536Z,12.93
2022-11-05T10:17:43.946Z,13.01
2022-11-05T10:18:42.565Z,13.02
2022-11-05T10:19:42.515Z,13.02
2022-11-05T10:20:42.517Z,13.06
2022-11-05T10:22:10.071Z,12.95
2022-11-05T10:22:49.587Z,12.93
2022-11-05T10:23:42.551Z,12.98
2022-11-05T10:24:42.527Z,13.01
2022-11-05T10:25:42.538Z,12.99
2022-11-05T10:26:42.533Z,13.02
2022-11-05T10:27:42.553Z,12.99
2022-11-05T10:28:42.561Z,12.88
2022-11-05T10:29:42.542Z,12.93
2022-11-05T10:30:42.537Z,12.98
2022-11-05T10:31:42.687Z,12.93
2022-11-05T10:32:42.686Z,13.05
2022-11-05T10:33:42.695Z,13.02
2022-11-05T10:34:42.610Z,13.09
2022-11-05T10:35:42.539Z,13.05
2022-11-05T10:36:42.551Z,13.11
2022-11-05T10:37:45.512Z,13.16
2022-11-05T10:38:42.565Z,13.23
2022-11-05T10:39:42.556Z,13.26
2022-11-05T10:40:42.566Z,13.26
2022-11-05T10:41:42.557Z,13.24
2022-11-05T10:42:42.560Z,13.26
2022-11-05T10:43:42.583Z,13.4
2022-11-05T10:44:42.562Z,13.45
2022-11-05T10:45:43.737Z,13.42
2022-11-05T10:46:42.572Z,13.49
2022-11-05T10:47:42.609Z,13.5
2022-11-05T10:48:47.954Z,13.4
2022-11-05T10:49:42.560Z,13.43
2022-11-05T10:50:42.578Z,13.52
2022-11-05T10:51:42.571Z,13.5
2022-11-05T10:52:42.592Z,13.57
2022-11-05T10:53:42.598Z,13.46
2022-11-05T10:54:42.567Z,13.57
2022-11-05T10:55:42.607Z,13.57
2022-11-05T10:56:45.395Z,13.54
2022-11-05T10:57:42.591Z,13.73
2022-11-05T10:58:42.623Z,13.78
2022-11-05T10:59:42.584Z,13.79
2022-11-05T11:00:43.009Z,13.76
2022-11-05T11:01:43.402Z,13.83
2022-11-05T11:02:42.709Z,13.86
2022-11-05T11:03:42.657Z,13.83
2022-11-05T11:04:42.990Z,13.83
2022-11-05T11:05:42.600Z,13.78
2022-11-05T11:06:42.595Z,13.86
2022-11-05T11:07:45.677Z,14.01
2022-11-05T11:08:42.613Z,14.01
2022-11-05T11:09:42.600Z,14.11
2022-11-05T11:10:42.617Z,14.16
2022-11-05T11:11:42.607Z,14.13
2022-11-05T11:12:45.656Z,14.2
2022-11-05T11:13:42.628Z,14.12
2022-11-05T11:14:42.609Z,14.07
2022-11-05T11:15:42.616Z,14.11
2022-11-05T11:16:42.621Z,14.15
2022-11-05T11:17:42.625Z,14.01
2022-11-05T11:18:47.790Z,13.94
2022-11-05T11:19:42.617Z,13.95
2022-11-05T11:20:42.648Z,13.97
2022-11-05T11:21:42.633Z,13.76
2022-11-05T11:22:42.638Z,13.89
2022-11-05T11:23:42.659Z,13.75
2022-11-05T11:24:42.625Z,13.64
2022-11-05T11:25:42.664Z,13.79
2022-11-05T11:26:42.640Z,13.75
2022-11-05T11:27:42.643Z,13.85
2022-11-05T11:28:42.655Z,13.89
2022-11-05T11:29:49.283Z,13.76
2022-11-05T11:30:42.638Z,13.79
2022-11-05T11:31:42.657Z,13.82
2022-11-05T11:32:42.672Z,13.54
2022-11-05T11:33:42.716Z,13.61
2022-11-05T11:34:42.948Z,13.71
2022-11-05T11:35:42.646Z,13.7
2022-11-05T11:36:42.774Z,13.68
2022-11-05T11:37:42.651Z,13.78
2022-11-05T11:38:42.675Z,13.83
2022-11-05T11:39:42.695Z,13.78
2022-11-05T11:40:45.485Z,13.86
2022-11-05T11:41:42.662Z,13.93
2022-11-05T11:42:42.657Z,13.89
2022-11-05T11:43:42.675Z,13.83
2022-11-05T11:44:42.659Z,13.89
2022-11-05T11:45:45.508Z,13.95
2022-11-05T11:46:42.664Z,14.03
2022-11-05T11:47:42.662Z,14.13
2022-11-05T11:48:42.725Z,14.03
2022-11-05T11:49:42.794Z,13.82
2022-11-05T11:50:42.812Z,13.85
2022-11-05T11:51:49.928Z,14.01
2022-11-05T11:52:42.709Z,14.08
2022-11-05T11:53:42.698Z,14.04
2022-11-05T11:54:42.694Z,14.08
2022-11-05T11:55:42.677Z,14
2022-11-05T11:56:45.811Z,13.97
2022-11-05T11:57:42.699Z,14.03
2022-11-05T11:58:42.749Z,14
2022-11-05T12:00:12.592Z,13.93
2022-11-05T12:00:42.877Z,13.97
2022-11-05T12:01:42.961Z,13.93
2022-11-05T12:02:45.957Z,13.91
2022-11-05T12:03:42.728Z,13.87
2022-11-05T12:04:42.702Z,13.86
2022-11-05T12:05:42.710Z,13.83
2022-11-05T12:06:42.756Z,13.86
2022-11-05T12:07:45.770Z,13.7
2022-11-05T12:09:01.923Z,13.79
2022-11-05T12:09:42.704Z,13.79
2022-11-05T12:10:42.725Z,13.6
2022-11-05T12:11:42.733Z,13.78
2022-11-05T12:12:42.730Z,13.73
2022-11-05T12:13:42.740Z,13.76
2022-11-05T12:14:49.161Z,13.68
2022-11-05T12:15:42.720Z,13.73
2022-11-05T12:16:42.721Z,13.62
2022-11-05T12:17:42.724Z,13.7
2022-11-05T12:18:46.038Z,13.67
2022-11-05T12:19:42.729Z,13.73
2022-11-05T12:20:42.724Z,13.57
2022-11-05T12:21:56.787Z,13.71
2022-11-05T12:22:42.734Z,13.64
2022-11-05T12:23:42.790Z,13.73
2022-11-05T12:24:42.756Z,13.68
2022-11-05T12:25:42.733Z,13.67
2022-11-05T12:26:42.730Z,13.57
2022-11-05T12:27:42.873Z,13.67
2022-11-05T12:29:21.212Z,13.46
2022-11-05T12:29:45.801Z,13.42
2022-11-05T12:30:42.742Z,13.47
2022-11-05T12:31:42.740Z,13.55
2022-11-05T12:32:43.007Z,13.57
2022-11-05T12:33:42.838Z,13.73
2022-11-05T12:34:42.773Z,13.62
2022-11-05T12:35:57.533Z,13.57
2022-11-05T12:36:42.770Z,13.52
2022-11-05T12:37:42.800Z,13.43
2022-11-05T12:38:42.753Z,13.37
2022-11-05T12:39:42.885Z,13.21
2022-11-05T12:40:42.775Z,13.39
2022-11-05T12:41:42.760Z,13.47
2022-11-05T12:42:42.824Z,13.42
2022-11-05T12:43:42.661Z,13.37
2022-11-05T12:44:42.888Z,13.43
2022-11-05T12:45:42.870Z,13.3
2022-11-05T12:46:42.639Z,13.36
2022-11-05T12:47:43.035Z,13.31
2022-11-05T12:48:42.697Z,13.3
2022-11-05T12:49:42.650Z,13.4
2022-11-05T12:50:44.876Z,13.46
2022-11-05T12:51:42.873Z,13.27
2022-11-05T12:52:42.637Z,13.23
2022-11-05T12:53:43.061Z,13.01
2022-11-05T12:54:42.820Z,12.91
2022-11-05T12:55:49.433Z,12.76
2022-11-05T12:56:42.800Z,12.87
2022-11-05T12:57:42.779Z,13.02
2022-11-05T12:58:42.804Z,13.02
2022-11-05T12:59:42.836Z,13.09
2022-11-05T13:00:42.802Z,13.01
2022-11-05T13:01:43.126Z,13.03